createdAt,value
2023-11-05T00:03:34.778Z,2.80
2023-11-05T00:06:01.539Z,2.70
2023-11-05T00:08:28.315Z,3.17
2023-11-05T00:10:55.067Z,3.33
2023-11-05T00:13:21.842Z,2.75
2023-11-05T00:15:55.787Z,3.40
2023-11-05T00:18:23.402Z,2.65
2023-11-05T00:20:50.313Z,2.92
2023-11-05T00:23:17.145Z,2.83
2023-11-05T00:25:43.863Z,2.70
2023-11-05T00:28:10.762Z,3.00
2023-11-05T00:30:37.694Z,2.60
2023-11-05T00:34:02.136Z,2.25
2023-11-05T00:36:31.224Z,2.20
2023-11-05T00:40:22.381Z,2.53
2023-11-05T01:08:01.401Z,2.65
2023-11-05T01:10:53.113Z,2.55
2023-11-05T01:17:00.601Z,2.30
2023-11-05T01:20:25.965Z,2.50
2023-11-05T01:26:23.860Z,2.17
2023-11-05T01:29:09.009Z,2.08
2023-11-05T01:40:14.727Z,2.10
2023-11-05T01:42:41.770Z,2.03
2023-11-05T01:45:10.650Z,1.52
2023-11-05T01:47:38.239Z,1.90
2023-11-05T01:50:05.732Z,2.10
2023-11-05T01:52:33.290Z,2.20
2023-11-05T01:55:00.853Z,1.90
2023-11-05T01:57:27.738Z,1.70
2023-11-05T01:59:54.532Z,2.30
2023-11-05T02:02:22.272Z,1.80
2023-11-05T02:04:49.271Z,1.88
2023-11-05T02:07:16.081Z,1.75
2023-11-05T02:09:43.496Z,1.75
2023-11-05T02:12:10.261Z,1.95
2023-11-05T02:14:37.031Z,1.83
2023-11-05T02:17:04.024Z,1.67
2023-11-05T02:19:30.856Z,1.50
2023-11-05T02:22:04.448Z,2.00
2023-11-05T02:24:32.214Z,1.63
2023-11-05T02:27:00.190Z,1.65
2023-11-05T02:29:27.268Z,1.80
2023-11-05T02:31:54.823Z,1.80
2023-11-05T02:34:22.002Z,1.55
2023-11-05T02:36:48.835Z,1.48
2023-11-05T02:39:15.671Z,1.50
2023-11-05T02:41:42.581Z,1.35
2023-11-05T02:44:09.328Z,1.45
2023-11-05T02:46:36.233Z,1.60
2023-11-05T02:49:03.520Z,1.35
2023-11-05T02:51:30.318Z,2.10
2023-11-05T02:53:57.023Z,1.77
2023-11-05T02:56:23.814Z,1.67
2023-11-05T02:58:52.069Z,1.88
2023-11-05T03:01:26.344Z,1.55
2023-11-05T03:03:53.187Z,1.65
2023-11-05T03:06:21.209Z,1.77
2023-11-05T03:08:47.991Z,1.75
2023-11-05T03:11:14.871Z,1.40
2023-11-05T03:13:41.628Z,1.88
2023-11-05T03:16:13.381Z,1.50
2023-11-05T03:18:43.463Z,1.50
2023-11-05T03:21:15.455Z,1.70
2023-11-05T03:23:42.848Z,1.70
2023-11-05T03:26:09.831Z,1.50
2023-11-05T03:28:36.687Z,1.45
2023-11-05T03:31:03.732Z,1.48
2023-11-05T03:33:30.514Z,1.75
2023-11-05T03:35:57.295Z,1.50
2023-11-05T03:38:24.042Z,1.88
2023-11-05T03:40:50.823Z,2.15
2023-11-05T03:43:17.546Z,2.05
2023-11-05T03:45:44.271Z,2.30
2023-11-05T03:48:11.103Z,1.88
2023-11-05T03:50:37.913Z,2.47
2023-11-05T03:53:04.635Z,1.98
2023-11-05T03:55:31.395Z,2.50
2023-11-05T03:57:58.138Z,1.90
2023-11-05T04:00:25.140Z,2.88
2023-11-05T04:02:51.987Z,2.38
2023-11-05T04:05:19.118Z,2.35
2023-11-05T04:07:45.957Z,2.33
2023-11-05T04:10:12.902Z,2.10
2023-11-05T04:12:39.919Z,2.80
2023-11-05T04:15:08.267Z,2.30
2023-11-05T04:17:35.832Z,2.33
2023-11-05T04:20:04.278Z,2.25
2023-11-05T04:22:31.244Z,2.40
2023-11-05T04:24:58.102Z,2.10
2023-11-05T04:27:24.805Z,2.20
2023-11-05T04:29:51.829Z,2.17
2023-11-05T04:32:19.421Z,2.65
2023-11-05T04:34:46.444Z,2.78
2023-11-05T04:37:13.937Z,2.65
2023-11-05T04:39:43.918Z,2.20
2023-11-05T04:42:12.253Z,2.15
2023-11-05T04:44:39.053Z,2.92
2023-11-05T04:47:06.812Z,4.00
2023-11-05T04:49:33.730Z,2.97
2023-11-05T04:52:00.505Z,3.08
2023-11-05T04:54:27.343Z,2.90
2023-11-05T04:56:54.167Z,2.55
2023-11-05T04:59:21.062Z,2.67
2023-11-05T05:01:47.794Z,2.10
2023-11-05T05:04:15.290Z,2.72
2023-11-05T05:06:42.645Z,2.60
2023-11-05T05:09:10.795Z,3.17
2023-11-05T05:11:37.824Z,3.85
2023-11-05T05:14:04.651Z,4.20
2023-11-05T05:16:31.511Z,4.00
2023-11-05T05:18:58.385Z,3.78
2023-11-05T05:21:25.149Z,3.70
2023-11-05T05:23:51.923Z,3.63
2023-11-05T05:26:20.509Z,3.20
2023-11-05T05:28:49.227Z,3.00
2023-11-05T05:31:17.141Z,2.95
2023-11-05T05:33:44.524Z,2.95
2023-11-05T05:36:13.797Z,3.08
2023-11-05T05:38:40.585Z,3.30
2023-11-05T05:41:07.340Z,2.75
2023-11-05T05:43:34.097Z,2.42
2023-11-05T05:46:00.882Z,3.05
2023-11-05T05:48:28.136Z,3.40
2023-11-05T05:50:55.289Z,3.15
2023-11-05T05:53:22.160Z,2.97
2023-11-05T05:55:48.922Z,2.90
2023-11-05T05:58:17.555Z,2.70
2023-11-05T06:00:45.028Z,3.80
2023-11-05T06:03:11.902Z,4.15
2023-11-05T06:05:38.865Z,3.55
2023-11-05T06:08:05.648Z,4.25
2023-11-05T06:10:32.548Z,4.75
2023-11-05T06:12:59.322Z,4.53
2023-11-05T06:15:26.050Z,4.15
2023-11-05T06:17:52.890Z,3.70
2023-11-05T06:20:19.771Z,4.25
2023-11-05T06:22:46.654Z,3.92
2023-11-05T06:25:13.526Z,3.60
2023-11-05T06:27:41.157Z,3.92
2023-11-05T06:30:09.733Z,4.20
2023-11-05T06:32:36.452Z,4.90
2023-11-05T06:35:03.732Z,4.90
2023-11-05T06:37:32.372Z,4.68
2023-11-05T06:39:59.546Z,4.88
2023-11-05T06:42:26.402Z,6.05
2023-11-05T06:44:53.195Z,5.40
2023-11-05T06:47:20.112Z,4.43
2023-11-05T06:49:47.896Z,3.67
2023-11-05T06:52:15.151Z,4.63
2023-11-05T06:54:42.622Z,4.95
2023-11-05T06:57:10.436Z,4.20
2023-11-05T06:59:37.770Z,4.15
2023-11-05T07:02:05.006Z,4.18
2023-11-05T07:04:33.220Z,4.28
2023-11-05T07:07:01.923Z,3.58
2023-11-05T07:09:28.875Z,4.55
2023-11-05T07:11:55.800Z,4.60
2023-11-05T07:14:22.567Z,22.30
2023-11-05T07:16:49.719Z,4.53
2023-11-05T07:19:16.975Z,5.28
2023-11-05T07:21:46.784Z,4.57
2023-11-05T07:24:16.167Z,4.07
2023-11-05T07:26:44.812Z,4.25
2023-11-05T07:29:14.908Z,7.00
2023-11-05T07:31:43.085Z,7.18
2023-11-05T07:34:11.966Z,3.80
2023-11-05T07:36:39.725Z,3.70
2023-11-05T07:39:08.715Z,4.43
2023-11-05T07:41:35.655Z,3.55
2023-11-05T07:44:02.544Z,3.38
2023-11-05T07:46:30.322Z,4.45
2023-11-05T07:48:57.052Z,2.90
2023-11-05T07:51:24.232Z,3.20
2023-11-05T07:53:51.135Z,2.90
2023-11-05T07:56:18.167Z,2.80
2023-11-05T07:58:46.273Z,3.00
2023-11-05T08:01:15.979Z,2.78
2023-11-05T08:03:42.744Z,2.90
2023-11-05T08:06:09.536Z,2.92
2023-11-05T08:08:36.268Z,2.75
2023-11-05T08:11:03.150Z,2.33
2023-11-05T08:13:29.848Z,2.50
2023-11-05T08:15:56.645Z,1.98
2023-11-05T08:18:24.034Z,2.13
2023-11-05T08:20:50.787Z,2.00
2023-11-05T08:23:18.907Z,1.85
2023-11-05T08:25:45.736Z,2.10
2023-11-05T08:28:20.432Z,2.00
2023-11-05T08:33:20.283Z,1.50
2023-11-05T08:35:48.242Z,1.48
2023-11-05T08:38:15.049Z,1.50
2023-11-05T08:40:42.103Z,1.90
2023-11-05T08:43:08.976Z,1.90
2023-11-05T08:45:45.516Z,1.50
2023-11-05T08:48:16.775Z,2.00
2023-11-05T08:50:43.705Z,1.13
2023-11-05T08:53:10.461Z,1.40
2023-11-05T08:55:38.392Z,1.67
2023-11-05T08:58:05.334Z,1.92
2023-11-05T09:00:36.684Z,1.67
2023-11-05T09:03:05.933Z,1.30
2023-11-05T09:05:33.015Z,0.90
2023-11-05T09:07:59.996Z,1.10
2023-11-05T09:10:28.139Z,1.25
2023-11-05T09:12:55.918Z,1.10
2023-11-05T09:15:24.521Z,0.70
2023-11-05T09:17:52.082Z,0.35
2023-11-05T09:20:20.049Z,0.20
2023-11-05T09:22:47.718Z,0.30
2023-11-05T09:25:15.717Z,0.43
2023-11-05T09:27:42.839Z,0.50
2023-11-05T09:30:16.165Z,0.60
2023-11-05T09:32:44.340Z,0.30
2023-11-05T09:35:15.251Z,0.40
2023-11-05T09:37:44.416Z,0.10
2023-11-05T09:40:17.616Z,0.20
2023-11-05T09:42:46.782Z,0.30
2023-11-05T09:45:14.009Z,0.10
2023-11-05T09:47:42.547Z,0.30
2023-11-05T09:50:13.869Z,0.25
2023-11-05T09:52:42.280Z,0.30
2023-11-05T09:55:10.374Z,0.20
2023-11-05T09:57:38.323Z,0.30
2023-11-05T10:00:13.043Z,0.30
2023-11-05T10:02:59.593Z,0.20
2023-11-05T10:05:33.517Z,0.20
2023-11-05T10:08:00.584Z,0.15
2023-11-05T10:10:28.130Z,0.10
2023-11-05T10:12:58.596Z,0.17
2023-11-05T10:15:26.335Z,0.20
2023-11-05T10:17:55.268Z,0.17
2023-11-05T10:20:22.600Z,0.00
2023-11-05T10:23:11.564Z,0.20
2023-11-05T10:25:38.464Z,0.30
2023-11-05T10:28:06.174Z,0.30
2023-11-05T10:30:37.514Z,0.40
2023-11-05T10:33:07.828Z,0.28
2023-11-05T10:35:39.112Z,0.22
2023-11-05T10:38:14.655Z,0.40
2023-11-05T10:40:44.487Z,0.30
2023-11-05T10:43:14.251Z,0.20
2023-11-05T10:45:42.243Z,0.60
2023-11-05T10:48:13.603Z,0.30
2023-11-05T10:50:42.142Z,0.25
2023-11-05T10:53:10.627Z,0.22
2023-11-05T10:55:43.462Z,0.40
2023-11-05T10:58:18.338Z,0.45
2023-11-05T11:00:51.209Z,0.45
2023-11-05T11:03:20.032Z,0.40
2023-11-05T11:05:48.692Z,0.28
2023-11-05T11:08:25.799Z,0.30
2023-11-05T11:11:13.584Z,0.40
2023-11-05T11:13:49.736Z,0.20
2023-11-05T11:16:27.233Z,0.60
2023-11-05T11:18:56.069Z,0.40
2023-11-05T11:21:23.800Z,0.35
2023-11-05T11:23:51.222Z,0.50
2023-11-05T11:26:23.115Z,0.57
2023-11-05T11:29:06.095Z,0.22
2023-11-05T11:31:35.793Z,0.20
2023-11-05T11:34:02.916Z,0.40
2023-11-05T11:36:29.724Z,0.25
2023-11-05T11:38:57.277Z,0.30
2023-11-05T11:41:24.181Z,0.30
2023-11-05T11:43:52.063Z,0.30
2023-11-05T11:46:24.540Z,0.57
2023-11-05T11:48:52.690Z,0.35
2023-11-05T11:51:21.238Z,0.30
2023-11-05T11:53:48.912Z,0.30
2023-11-05T11:56:15.732Z,0.40
2023-11-05T11:58:42.908Z,0.40
2023-11-05T12:01:19.495Z,0.20
2023-11-05T12:03:47.558Z,0.30
2023-11-05T12:06:15.078Z,0.50
2023-11-05T12:08:47.057Z,0.55
2023-11-05T12:11:18.210Z,0.40
2023-11-05T12:13:45.716Z,0.40
2023-11-05T12:16:14.244Z,0.40
2023-11-05T12:18:42.853Z,0.50
2023-11-05T12:21:10.784Z,0.20
2023-11-05T12:23:39.336Z,0.50
2023-11-05T12:26:08.775Z,0.30
2023-11-05T12:28:35.882Z,0.50
2023-11-05T12:31:10.602Z,0.30
2023-11-05T12:33:39.390Z,0.50
2023-11-05T12:36:11.736Z,0.38
2023-11-05T12:38:39.094Z,0.20
2023-11-05T12:41:06.799Z,0.28
2023-11-05T12:43:35.822Z,0.20
2023-11-05T12:46:04.955Z,0.50
2023-11-05T12:48:33.795Z,0.63
2023-11-05T12:51:05.153Z,0.40
2023-11-05T12:53:36.206Z,0.20
2023-11-05T12:56:06.628Z,0.45
2023-11-05T12:58:36.087Z,0.32
2023-11-05T13:01:06.032Z,0.20
2023-11-05T13:06:07.391Z,0.47
2023-11-05T13:08:35.606Z,0.60
2023-11-05T13:11:06.954Z,0.43
2023-11-05T13:13:35.909Z,0.38
2023-11-05T13:16:04.356Z,0.40
2023-11-05T13:18:34.147Z,0.40
2023-11-05T13:21:01.803Z,0.28
2023-11-05T13:23:30.357Z,0.20
2023-11-05T13:25:59.100Z,0.40
2023-11-05T13:29:05.866Z,0.30
2023-11-05T13:31:34.969Z,0.30
2023-11-05T13:34:02.421Z,0.43
2023-11-05T13:36:29.365Z,0.32
2023-11-05T13:38:57.651Z,0.30
2023-11-05T13:41:24.784Z,0.40
2023-11-05T13:43:51.776Z,0.20
2023-11-05T13:46:19.185Z,0.20
2023-11-05T13:48:46.456Z,0.50
2023-11-05T13:51:13.665Z,0.43
2023-11-05T13:53:40.752Z,0.30
2023-11-05T13:56:08.586Z,0.22
2023-11-05T13:58:35.664Z,0.40
2023-11-05T14:01:02.808Z,0.30
2023-11-05T14:03:29.889Z,0.30
2023-11-05T14:05:57.293Z,0.38
2023-11-05T14:08:24.231Z,0.30
2023-11-05T14:10:51.194Z,0.60
2023-11-05T14:13:18.136Z,0.13
2023-11-05T14:15:44.934Z,0.40
2023-11-05T14:18:11.830Z,0.60
2023-11-05T14:20:40.187Z,1.35
2023-11-05T14:23:12.755Z,0.60
2023-11-05T14:25:40.574Z,0.47
2023-11-05T14:28:07.858Z,0.50
2023-11-05T14:30:35.195Z,0.80
2023-11-05T14:33:06.575Z,1.42
2023-11-05T14:35:33.970Z,0.60
2023-11-05T14:38:02.117Z,0.65
2023-11-05T14:40:30.538Z,0.63
2023-11-05T14:42:57.957Z,0.50
2023-11-05T14:45:28.531Z,0.47
2023-11-05T14:47:56.710Z,0.50
2023-11-05T14:50:23.667Z,0.65
2023-11-05T14:52:51.334Z,0.52
2023-11-05T14:55:18.387Z,0.50
2023-11-05T14:57:45.521Z,0.45
2023-11-05T15:00:13.717Z,0.57
2023-11-05T15:02:41.468Z,0.52
2023-11-05T15:05:13.348Z,0.85
2023-11-05T15:07:42.186Z,0.38
2023-11-05T15:10:12.291Z,0.50
2023-11-05T15:12:39.151Z,0.63
2023-11-05T15:15:07.001Z,0.95
2023-11-05T15:17:35.955Z,0.60
2023-11-05T15:20:09.126Z,0.73
2023-11-05T15:22:40.607Z,0.60
2023-11-05T15:25:09.277Z,0.90
2023-11-05T15:27:38.049Z,0.70
2023-11-05T15:30:10.452Z,0.70
2023-11-05T15:32:43.132Z,0.73
2023-11-05T15:35:10.384Z,1.15
2023-11-05T15:37:37.916Z,0.73
2023-11-05T15:40:06.677Z,0.75
2023-11-05T15:42:38.179Z,0.50
2023-11-05T15:45:05.742Z,0.77
2023-11-05T15:47:32.766Z,0.88
2023-11-05T15:50:00.708Z,0.90
2023-11-05T15:52:27.876Z,1.10
2023-11-05T15:54:55.115Z,1.10
2023-11-05T15:57:24.802Z,1.60
2023-11-05T15:59:52.080Z,2.47
2023-11-05T16:02:19.139Z,2.55
2023-11-05T16:04:46.006Z,1.48
2023-11-05T16:07:13.298Z,1.70
2023-11-05T16:09:40.769Z,1.60
2023-11-05T16:12:08.848Z,1.40
2023-11-05T16:14:40.713Z,1.00
2023-11-05T16:17:07.960Z,0.75
2023-11-05T16:19:36.295Z,0.80
2023-11-05T16:22:04.507Z,1.10
2023-11-05T16:24:32.074Z,0.88
2023-11-05T16:27:05.689Z,0.85
2023-11-05T16:29:33.993Z,0.90
2023-11-05T16:32:05.841Z,0.85
2023-11-05T16:34:43.292Z,0.85
2023-11-05T16:37:12.325Z,0.93
2023-11-05T16:39:44.108Z,0.90
2023-11-05T16:42:12.495Z,0.82
2023-11-05T16:44:40.589Z,0.73
2023-11-05T16:47:12.158Z,1.08
2023-11-05T16:49:42.621Z,1.58
2023-11-05T16:52:15.729Z,1.75
2023-11-05T16:54:46.449Z,2.75
2023-11-05T16:59:41.311Z,0.70
2023-11-05T17:02:13.794Z,1.00
2023-11-05T17:04:48.344Z,0.77
2023-11-05T17:07:17.378Z,1.20
2023-11-05T17:09:45.561Z,1.00
2023-11-05T17:12:14.998Z,1.30
2023-11-05T17:14:46.382Z,0.85
2023-11-05T17:17:14.554Z,3.05
2023-11-05T17:19:42.358Z,3.95
2023-11-05T17:22:09.862Z,2.80
2023-11-05T17:24:37.218Z,1.90
2023-11-05T17:27:15.847Z,1.48
2023-11-05T17:29:44.317Z,1.30
2023-11-05T17:32:14.758Z,1.25
2023-11-05T17:34:43.300Z,2.67
2023-11-05T17:37:24.089Z,1.30
2023-11-05T17:39:57.865Z,0.93
2023-11-05T17:42:28.835Z,0.98
2023-11-05T17:44:57.129Z,0.88
2023-11-05T17:47:25.443Z,1.05
2023-11-05T17:49:56.847Z,1.10
2023-11-05T17:52:28.336Z,0.70
2023-11-05T17:55:03.156Z,1.02
2023-11-05T17:57:33.655Z,0.70
2023-11-05T18:00:15.323Z,0.70
2023-11-05T18:02:48.525Z,0.90
2023-11-05T18:06:41.441Z,0.80
2023-11-05T18:09:28.478Z,0.52
2023-11-05T18:12:00.158Z,0.60
2023-11-05T18:17:36.445Z,0.82
2023-11-05T18:20:24.777Z,0.57
2023-11-05T18:23:05.832Z,0.50
2023-11-05T18:25:52.364Z,0.73
2023-11-05T18:46:24.228Z,1.20
2023-11-05T18:48:54.391Z,1.50
2023-11-05T18:51:30.826Z,0.60
2023-11-05T18:54:16.630Z,1.17
2023-11-05T18:56:50.372Z,0.82
2023-11-05T18:59:34.644Z,0.55
2023-11-05T19:02:03.751Z,1.30
2023-11-05T19:04:44.496Z,4.45
2023-11-05T19:10:44.682Z,2.03
2023-11-05T19:13:43.257Z,1.40
2023-11-05T20:02:14.321Z,0.70
2023-11-05T20:05:10.092Z,0.90
2023-11-05T20:08:49.581Z,0.43
2023-11-05T20:11:24.153Z,0.45
2023-11-05T20:14:10.104Z,0.90
2023-11-05T20:20:15.535Z,0.50
2023-11-05T20:22:50.395Z,0.50
2023-11-05T20:25:30.942Z,0.70
2023-11-05T20:28:09.653Z,0.30
2023-11-05T20:30:52.683Z,0.30
2023-11-05T20:33:46.039Z,0.50
2023-11-05T20:37:26.809Z,0.70
2023-11-05T20:45:02.547Z,0.30
2023-11-05T20:47:37.846Z,0.35
2023-11-05T21:03:26.951Z,0.30
2023-11-05T21:07:03.253Z,0.30
2023-11-05T21:09:30.693Z,0.30
2023-11-05T21:12:13.499Z,0.43
2023-11-05T21:15:03.484Z,0.22
2023-11-05T21:21:06.181Z,0.10
2023-11-05T21:24:42.062Z,0.20
2023-11-05T21:43:49.422Z,0.20
2023-11-05T21:46:16.534Z,0.22
2023-11-05T21:48:46.035Z,0.25
2023-11-05T21:51:13.515Z,0.22
2023-11-05T21:53:40.320Z,0.20
2023-11-05T21:56:07.398Z,0.30
2023-11-05T21:58:34.410Z,0.20
2023-11-05T22:01:01.173Z,0.30
2023-11-05T22:03:28.180Z,0.32
2023-11-05T22:05:55.110Z,0.17
2023-11-05T22:08:22.575Z,0.40
2023-11-05T22:10:49.477Z,0.32
2023-11-05T22:13:16.307Z,0.20
2023-11-05T22:15:43.048Z,0.38
2023-11-05T22:18:09.908Z,0.17
2023-11-05T22:20:37.140Z,0.40
2023-11-05T22:23:04.003Z,0.20
2023-11-05T22:25:31.159Z,0.20
2023-11-05T22:27:58.003Z,0.50
2023-11-05T22:30:25.001Z,0.30
2023-11-05T22:32:52.491Z,0.30
2023-11-05T22:35:19.384Z,0.30
2023-11-05T22:37:46.185Z,0.20
2023-11-05T22:40:13.451Z,0.30
2023-11-05T22:42:40.312Z,0.20
2023-11-05T22:45:07.937Z,0.38
2023-11-05T22:47:34.752Z,0.50
2023-11-05T22:50:01.642Z,0.30
2023-11-05T22:52:28.590Z,0.30
2023-11-05T22:54:55.428Z,0.38
2023-11-05T22:57:22.149Z,0.70
2023-11-05T22:59:48.901Z,0.38
2023-11-05T23:02:15.889Z,0.20
2023-11-05T23:04:42.795Z,0.30
2023-11-05T23:07:09.691Z,0.30
2023-11-05T23:09:38.732Z,0.47
2023-11-05T23:12:05.932Z,0.40
2023-11-05T23:14:32.911Z,0.35
2023-11-05T23:16:59.853Z,0.40
2023-11-05T23:19:26.678Z,0.28
2023-11-05T23:21:54.637Z,0.20
2023-11-05T23:24:21.517Z,0.30
2023-11-05T23:26:48.312Z,0.43
2023-11-05T23:29:15.213Z,0.32
2023-11-05T23:31:42.791Z,0.20
2023-11-05T23:34:09.892Z,0.50
2023-11-05T23:36:36.750Z,0.40
2023-11-05T23:39:03.662Z,0.30
2023-11-05T23:41:30.533Z,0.60
2023-11-05T23:43:58.141Z,0.20
2023-11-05T23:46:24.961Z,0.40
2023-11-05T23:48:51.811Z,0.45
2023-11-05T23:51:18.753Z,0.40
2023-11-05T23:53:45.671Z,0.40
2023-11-05T23:56:15.541Z,0.20
2023-11-05T23:58:42.327Z,0.40
